createdAt,value
2019-01-19T00:00:32.257Z,99.90
2019-01-19T00:03:28.195Z,99.90
2019-01-19T00:06:43.107Z,99.90
2019-01-19T00:09:21.113Z,99.90
2019-01-19T00:12:42.011Z,99.90
2019-01-19T00:15:33.987Z,99.90
2019-01-19T00:18:38.033Z,99.90
2019-01-19T00:21:42.729Z,99.90
2019-01-19T00:24:33.733Z,99.90
2019-01-19T00:27:26.684Z,99.90
2019-01-19T00:30:40.360Z,99.90
2019-01-19T00:33:19.241Z,99.90
2019-01-19T00:36:14.190Z,99.90
2019-01-19T00:39:20.891Z,99.90
2019-01-19T00:42:17.970Z,99.90
2019-01-19T00:45:30.446Z,99.90
2019-01-19T00:48:27.434Z,99.90
2019-01-19T00:51:42.702Z,99.90
2019-01-19T00:54:49.499Z,99.90
2019-01-19T00:58:02.062Z,99.90
2019-01-19T01:00:46.106Z,99.90
2019-01-19T01:03:38.310Z,99.90
2019-01-19T01:06:53.743Z,99.90
2019-01-19T01:09:50.731Z,99.90
2019-01-19T01:13:16.547Z,99.90
2019-01-19T01:16:15.590Z,99.90
2019-01-19T01:19:07.654Z,99.90
2019-01-19T01:22:26.687Z,99.90
2019-01-19T01:25:42.138Z,99.90
2019-01-19T01:28:37.453Z,99.90
2019-01-19T01:31:57.819Z,99.90
2019-01-19T01:35:08.541Z,99.90
2019-01-19T01:38:02.066Z,99.90
2019-01-19T01:41:13.024Z,99.90
2019-01-19T01:44:18.264Z,99.90
2019-01-19T01:47:30.852Z,99.90
2019-01-19T01:50:34.452Z,99.90
2019-01-19T01:53:39.563Z,99.90
2019-01-19T01:56:16.326Z,99.90
2019-01-19T01:59:32.459Z,99.90
2019-01-19T02:02:35.976Z,99.90
2019-01-19T02:05:55.851Z,99.90
2019-01-19T02:08:50.204Z,99.90
2019-01-19T02:11:40.892Z,99.90
2019-01-19T02:14:21.730Z,99.90
2019-01-19T02:17:17.871Z,99.90
2019-01-19T02:20:23.713Z,99.90
2019-01-19T02:23:46.562Z,99.90
2019-01-19T02:26:40.015Z,99.90
2019-01-19T02:29:35.652Z,99.90
2019-01-19T02:32:39.715Z,99.90
2019-01-19T02:35:30.352Z,99.90
2019-01-19T02:38:40.594Z,99.90
2019-01-19T02:41:23.336Z,99.90
2019-01-19T02:44:30.651Z,99.90
2019-01-19T02:47:39.147Z,99.90
2019-01-19T02:50:32.466Z,99.90
2019-01-19T02:53:33.225Z,99.90
2019-01-19T02:56:23.861Z,99.90
2019-01-19T02:59:15.830Z,99.90
2019-01-19T03:02:04.004Z,99.90
2019-01-19T03:04:53.169Z,99.90
2019-01-19T03:08:09.026Z,99.90
2019-01-19T03:11:14.246Z,99.90
2019-01-19T03:14:23.565Z,99.90
2019-01-19T03:17:28.933Z,99.90
2019-01-19T03:20:36.290Z,99.90
2019-01-19T03:23:35.536Z,99.90
2019-01-19T03:26:53.542Z,99.90
2019-01-19T03:29:44.075Z,99.90
2019-01-19T03:33:07.343Z,99.90
2019-01-19T03:36:36.059Z,99.90
2019-01-19T03:39:28.989Z,99.90
2019-01-19T03:42:31.740Z,99.90
2019-01-19T03:45:36.121Z,99.90
2019-01-19T03:48:33.879Z,99.90
2019-01-19T03:51:46.537Z,99.90
2019-01-19T03:54:34.227Z,99.90
2019-01-19T03:57:47.929Z,99.90
2019-01-19T04:01:01.859Z,99.90
2019-01-19T04:04:24.121Z,99.90
2019-01-19T04:07:00.577Z,99.90
2019-01-19T04:10:02.281Z,99.90
2019-01-19T04:13:13.179Z,99.90
2019-01-19T04:16:26.452Z,99.90
2019-01-19T04:19:11.033Z,99.90
2019-01-19T04:21:53.046Z,99.90
2019-01-19T04:24:26.629Z,99.90
2019-01-19T04:26:57.869Z,99.90
2019-01-19T04:29:27.147Z,99.90
2019-01-19T04:31:56.423Z,99.90
2019-01-19T04:34:26.274Z,99.90
2019-01-19T04:36:55.717Z,99.90
2019-01-19T04:39:25.138Z,99.90
2019-01-19T04:41:54.288Z,99.90
2019-01-19T04:44:23.508Z,99.90
2019-01-19T04:46:53.046Z,99.90
2019-01-19T04:49:22.186Z,99.90
2019-01-19T04:51:51.364Z,99.90
2019-01-19T04:54:20.514Z,99.90
2019-01-19T04:56:50.040Z,99.90
2019-01-19T04:59:19.199Z,99.90
2019-01-19T05:01:48.347Z,99.90
2019-01-19T05:04:18.151Z,99.90
2019-01-19T05:06:47.368Z,99.90
2019-01-19T05:09:16.811Z,99.90
2019-01-19T05:11:45.970Z,99.90
2019-01-19T05:14:15.438Z,99.90
2019-01-19T05:16:45.444Z,99.90
2019-01-19T05:19:14.594Z,99.90
2019-01-19T05:21:43.734Z,99.90
2019-01-19T05:24:12.970Z,99.90
2019-01-19T05:26:42.168Z,99.90
2019-01-19T05:29:11.324Z,99.90
2019-01-19T05:31:40.465Z,99.90
2019-01-19T05:34:09.659Z,99.90
2019-01-19T05:36:38.888Z,99.90
2019-01-19T05:39:09.159Z,99.90
2019-01-19T05:41:38.747Z,99.90
2019-01-19T05:44:07.909Z,99.90
2019-01-19T05:46:37.447Z,99.90
2019-01-19T05:49:06.574Z,99.90
2019-01-19T05:51:35.802Z,99.90
2019-01-19T05:54:05.719Z,99.90
2019-01-19T05:56:34.900Z,99.90
2019-01-19T05:59:04.138Z,99.90
2019-01-19T06:01:33.690Z,99.90
2019-01-19T06:04:02.917Z,99.90
2019-01-19T06:06:32.071Z,99.90
2019-01-19T06:09:01.294Z,99.90
2019-01-19T06:11:30.776Z,99.90
2019-01-19T06:13:59.998Z,99.90
2019-01-19T06:16:29.169Z,99.90
2019-01-19T06:18:58.706Z,99.90
2019-01-19T06:21:31.548Z,99.90
2019-01-19T06:24:00.710Z,99.90
2019-01-19T06:26:30.057Z,99.90
2019-01-19T06:28:59.220Z,99.90
2019-01-19T06:31:28.649Z,99.90
2019-01-19T06:33:58.055Z,99.90
2019-01-19T06:36:27.535Z,99.90
2019-01-19T06:38:56.772Z,99.90
2019-01-19T06:41:26.167Z,99.90
2019-01-19T06:43:55.327Z,99.90
2019-01-19T06:46:24.598Z,99.90
2019-01-19T06:48:53.842Z,99.90
2019-01-19T06:51:23.060Z,99.90
2019-01-19T06:53:52.600Z,99.90
2019-01-19T06:56:25.091Z,99.90
2019-01-19T06:58:54.272Z,99.90
2019-01-19T07:01:23.786Z,99.90
2019-01-19T07:03:53.289Z,99.90
2019-01-19T07:06:26.259Z,99.90
2019-01-19T07:08:56.937Z,99.90
2019-01-19T07:11:26.149Z,99.90
2019-01-19T07:13:55.405Z,99.90
2019-01-19T07:16:24.672Z,99.90
2019-01-19T07:18:53.900Z,99.90
2019-01-19T07:21:23.251Z,99.90
2019-01-19T07:23:52.411Z,99.90
2019-01-19T07:26:21.605Z,99.90
2019-01-19T07:28:50.819Z,99.90
2019-01-19T07:31:20.024Z,99.90
2019-01-19T07:33:49.377Z,99.90
2019-01-19T07:36:18.916Z,99.90
2019-01-19T07:38:48.194Z,99.90
2019-01-19T07:41:17.442Z,99.90
2019-01-19T07:43:46.683Z,99.90
2019-01-19T07:46:16.336Z,99.90
2019-01-19T07:48:45.606Z,99.90
2019-01-19T07:51:15.585Z,99.90
2019-01-19T07:53:45.198Z,99.90
2019-01-19T07:56:14.795Z,99.90
2019-01-19T07:58:44.324Z,99.90
2019-01-19T08:01:13.642Z,99.90
2019-01-19T08:03:42.957Z,99.90
2019-01-19T08:06:12.140Z,99.90
2019-01-19T08:08:41.461Z,99.90
2019-01-19T08:11:11.366Z,99.90
2019-01-19T08:13:42.279Z,99.90
2019-01-19T08:16:11.987Z,99.90
2019-01-19T08:18:41.197Z,99.90
2019-01-19T08:21:10.375Z,99.90
2019-01-19T08:23:39.988Z,99.90
2019-01-19T08:26:09.573Z,99.90
2019-01-19T08:28:40.140Z,99.90
2019-01-19T08:31:09.399Z,99.90
2019-01-19T08:33:38.627Z,99.90
2019-01-19T08:36:07.869Z,99.90
2019-01-19T08:38:37.083Z,99.90
2019-01-19T08:41:06.613Z,99.90
2019-01-19T08:43:41.501Z,99.90
2019-01-19T08:46:10.678Z,99.90
2019-01-19T08:48:40.112Z,99.90
2019-01-19T08:51:09.562Z,99.90
2019-01-19T08:53:39.116Z,99.90
2019-01-19T08:56:08.795Z,99.90
2019-01-19T08:58:38.351Z,99.90
2019-01-19T09:01:07.859Z,99.90
2019-01-19T09:03:37.046Z,99.90
2019-01-19T09:06:06.725Z,99.90
2019-01-19T09:08:35.993Z,99.90
2019-01-19T09:11:05.530Z,99.90
2019-01-19T09:13:34.761Z,99.90
2019-01-19T09:16:11.263Z,99.90
2019-01-19T09:18:40.522Z,99.90
2019-01-19T09:21:09.927Z,99.90
2019-01-19T09:23:55.452Z,99.90
2019-01-19T09:26:24.708Z,99.90
2019-01-19T09:28:54.612Z,99.90
2019-01-19T09:31:24.100Z,99.90
2019-01-19T09:33:53.251Z,99.90
2019-01-19T09:36:23.019Z,99.90
2019-01-19T09:38:52.524Z,99.90
2019-01-19T09:41:22.689Z,99.90
2019-01-19T09:43:51.830Z,99.90
2019-01-19T09:46:21.169Z,99.90
2019-01-19T09:48:50.353Z,99.90
2019-01-19T09:51:19.754Z,99.90
2019-01-19T09:53:48.899Z,99.90
2019-01-19T09:56:18.642Z,99.90
2019-01-19T09:58:48.065Z,99.90
2019-01-19T10:01:17.276Z,99.90
2019-01-19T10:03:46.449Z,99.90
2019-01-19T10:06:15.594Z,99.90
2019-01-19T10:08:44.749Z,99.90
2019-01-19T10:11:14.569Z,99.90
2019-01-19T10:13:44.086Z,99.90
2019-01-19T10:16:13.248Z,99.90
2019-01-19T10:18:42.419Z,99.90
2019-01-19T10:21:11.647Z,99.90
2019-01-19T10:23:40.898Z,99.90
2019-01-19T10:26:10.167Z,99.90
2019-01-19T10:28:40.288Z,99.90
2019-01-19T10:31:09.463Z,99.90
2019-01-19T10:33:39.767Z,99.90
2019-01-19T10:36:09.037Z,99.90
2019-01-19T10:38:38.264Z,99.90
2019-01-19T10:41:07.427Z,99.90
2019-01-19T10:43:36.669Z,99.90
2019-01-19T10:46:05.832Z,99.90
2019-01-19T10:48:35.335Z,98.90
2019-01-19T10:51:04.966Z,95.00
2019-01-19T10:53:34.452Z,91.70
2019-01-19T10:56:03.617Z,88.90
2019-01-19T10:58:32.805Z,84.60
2019-01-19T11:01:02.213Z,84.10
2019-01-19T11:03:31.387Z,82.20
2019-01-19T11:06:00.539Z,82.20
2019-01-19T11:08:30.388Z,78.20
2019-01-19T11:10:59.547Z,78.50
2019-01-19T11:13:29.364Z,77.50
2019-01-19T11:15:58.628Z,74.60
2019-01-19T11:18:31.362Z,71.60
2019-01-19T11:21:00.733Z,70.30
2019-01-19T11:23:39.727Z,68.20
2019-01-19T11:26:05.921Z,66.80
2019-01-19T11:28:35.365Z,66.20
2019-01-19T11:31:04.913Z,69.40
2019-01-19T11:33:34.067Z,67.90
2019-01-19T11:36:03.285Z,69.00
2019-01-19T11:38:32.433Z,69.10
2019-01-19T11:41:01.602Z,67.90
2019-01-19T11:43:30.870Z,61.60
2019-01-19T11:46:00.138Z,59.70
2019-01-19T11:48:29.317Z,61.60
2019-01-19T11:50:58.475Z,60.40
2019-01-19T11:53:27.842Z,60.30
2019-01-19T11:55:56.992Z,60.00
2019-01-19T11:58:26.503Z,58.80
2019-01-19T12:00:55.788Z,61.20
2019-01-19T12:03:25.019Z,60.10
2019-01-19T12:05:55.307Z,58.30
2019-01-19T12:08:24.590Z,58.80
2019-01-19T12:10:54.216Z,59.00
2019-01-19T12:13:23.409Z,58.80
2019-01-19T12:15:52.998Z,59.80
2019-01-19T12:18:22.218Z,59.10
2019-01-19T12:20:52.316Z,57.80
2019-01-19T12:23:21.624Z,55.90
2019-01-19T12:25:51.752Z,58.10
2019-01-19T12:28:21.444Z,57.60
2019-01-19T12:30:51.515Z,57.30
2019-01-19T12:33:21.275Z,57.60
2019-01-19T12:35:50.862Z,57.10
2019-01-19T12:38:26.801Z,54.20
2019-01-19T12:40:51.836Z,55.60
2019-01-19T12:43:22.742Z,56.30
2019-01-19T12:45:57.806Z,56.00
2019-01-19T12:48:26.977Z,54.40
2019-01-19T12:50:56.225Z,54.20
2019-01-19T12:53:26.347Z,55.30
2019-01-19T12:55:55.506Z,56.20
2019-01-19T12:58:24.829Z,55.50
2019-01-19T13:00:54.281Z,54.20
2019-01-19T13:03:23.423Z,52.90
2019-01-19T13:06:24.830Z,52.70
2019-01-19T13:08:54.050Z,54.00
2019-01-19T13:11:45.829Z,53.70
2019-01-19T13:14:15.045Z,52.40
2019-01-19T13:17:21.131Z,53.20
2019-01-19T13:20:21.306Z,53.10
2019-01-19T13:23:26.330Z,53.70
2019-01-19T13:26:42.173Z,53.20
2019-01-19T13:29:45.972Z,52.10
2019-01-19T13:32:50.674Z,50.50
2019-01-19T13:35:56.504Z,50.90
2019-01-19T13:39:15.695Z,50.40
2019-01-19T13:42:40.260Z,50.90
2019-01-19T13:45:42.611Z,52.60
2019-01-19T13:48:45.161Z,51.30
2019-01-19T13:51:51.438Z,49.80
2019-01-19T13:54:52.658Z,51.00
2019-01-19T13:58:04.079Z,50.50
2019-01-19T14:00:48.967Z,49.20
2019-01-19T14:04:00.676Z,49.60
2019-01-19T14:07:03.062Z,49.10
2019-01-19T14:10:02.017Z,51.30
2019-01-19T14:13:06.975Z,53.30
2019-01-19T14:15:57.283Z,55.20
2019-01-19T14:19:14.266Z,57.00
2019-01-19T14:22:43.041Z,58.80
2019-01-19T14:25:35.630Z,64.00
2019-01-19T14:28:43.186Z,71.70
2019-01-19T14:31:52.766Z,76.40
2019-01-19T14:34:50.512Z,80.90
2019-01-19T14:37:42.133Z,83.80
2019-01-19T14:40:36.856Z,87.10
2019-01-19T14:43:38.573Z,89.80
2019-01-19T14:46:34.015Z,90.50
2019-01-19T14:49:50.844Z,91.40
2019-01-19T14:52:31.596Z,91.40
2019-01-19T14:55:11.860Z,92.40
2019-01-19T14:58:25.743Z,91.80
2019-01-19T15:01:14.375Z,91.80
2019-01-19T15:04:06.606Z,92.10
2019-01-19T15:07:21.690Z,91.90
2019-01-19T15:10:59.234Z,92.60
2019-01-19T15:14:22.364Z,92.50
2019-01-19T15:17:38.596Z,93.20
2019-01-19T15:20:51.815Z,94.20
2019-01-19T15:23:36.941Z,94.80
2019-01-19T15:26:50.733Z,93.40
2019-01-19T15:29:57.822Z,93.50
2019-01-19T15:33:02.234Z,93.60
2019-01-19T15:36:16.076Z,94.00
2019-01-19T15:39:12.537Z,94.10
2019-01-19T15:42:14.522Z,94.50
2019-01-19T15:45:33.287Z,94.60
2019-01-19T15:48:24.303Z,95.10
2019-01-19T15:51:23.096Z,95.10
2019-01-19T15:54:10.622Z,95.10
2019-01-19T15:57:22.962Z,95.10
2019-01-19T16:00:39.254Z,95.40
2019-01-19T16:03:34.915Z,95.30
2019-01-19T16:07:03.274Z,95.40
2019-01-19T16:10:12.597Z,95.90
2019-01-19T16:13:21.507Z,96.30
2019-01-19T16:16:29.001Z,96.80
2019-01-19T16:19:36.982Z,96.80
2019-01-19T16:22:59.535Z,96.90
2019-01-19T16:25:59.320Z,97.10
2019-01-19T16:28:48.595Z,97.00
2019-01-19T16:31:50.245Z,97.30
2019-01-19T16:34:43.654Z,97.50
2019-01-19T16:37:51.438Z,97.80
2019-01-19T16:40:51.322Z,98.10
2019-01-19T16:43:32.831Z,98.20
2019-01-19T16:46:49.363Z,98.60
2019-01-19T16:50:00.707Z,99.10
2019-01-19T16:53:00.840Z,98.60
2019-01-19T16:56:02.272Z,98.70
2019-01-19T16:59:07.560Z,98.90
2019-01-19T17:02:21.873Z,98.90
2019-01-19T17:05:22.256Z,99.20
2019-01-19T17:08:30.920Z,99.20
2019-01-19T17:11:38.489Z,99.50
2019-01-19T17:14:58.443Z,99.50
2019-01-19T17:17:59.755Z,99.50
2019-01-19T17:21:31.665Z,99.50
2019-01-19T17:24:19.921Z,99.60
2019-01-19T17:27:41.169Z,99.40
2019-01-19T17:30:43.761Z,99.50
2019-01-19T17:33:49.152Z,99.80
2019-01-19T17:36:50.403Z,99.70
2019-01-19T17:40:22.393Z,99.80
2019-01-19T17:43:25.916Z,99.90
2019-01-19T17:46:40.753Z,99.90
2019-01-19T17:49:30.997Z,99.90
2019-01-19T17:52:50.521Z,99.90
2019-01-19T17:55:48.839Z,99.90
2019-01-19T17:59:12.424Z,99.90
2019-01-19T18:02:21.606Z,99.90
2019-01-19T18:05:05.142Z,99.90
2019-01-19T18:08:13.511Z,99.90
2019-01-19T18:11:20.968Z,99.90
2019-01-19T18:14:18.587Z,99.90
2019-01-19T18:17:40.913Z,99.90
2019-01-19T18:21:06.178Z,99.90
2019-01-19T18:23:56.777Z,99.90
2019-01-19T18:26:38.680Z,99.90
2019-01-19T18:29:57.757Z,99.90
2019-01-19T18:32:51.587Z,99.90
2019-01-19T18:35:38.146Z,99.90
2019-01-19T18:38:36.929Z,99.90
2019-01-19T18:41:25.935Z,99.90
2019-01-19T18:44:36.136Z,99.90
2019-01-19T18:47:27.187Z,99.90
2019-01-19T18:50:24.554Z,99.90
2019-01-19T18:53:02.494Z,99.90
2019-01-19T18:55:57.976Z,99.90
2019-01-19T18:58:39.977Z,99.90
2019-01-19T19:01:49.916Z,99.90
2019-01-19T19:04:50.207Z,99.90
2019-01-19T19:08:09.699Z,99.90
2019-01-19T19:10:55.550Z,99.90
2019-01-19T19:13:47.743Z,99.90
2019-01-19T19:16:48.555Z,99.90
2019-01-19T19:19:58.168Z,99.90
2019-01-19T19:23:04.498Z,99.90
2019-01-19T19:25:51.972Z,99.90
2019-01-19T19:28:59.720Z,99.90
2019-01-19T19:32:22.227Z,99.90
2019-01-19T19:35:43.820Z,99.90
2019-01-19T19:38:54.619Z,99.90
2019-01-19T19:42:18.830Z,99.90
2019-01-19T19:45:24.210Z,99.90
2019-01-19T19:48:42.013Z,99.90
2019-01-19T19:52:00.845Z,99.90
2019-01-19T19:54:31.894Z,99.90
2019-01-19T19:57:01.898Z,99.90
2019-01-19T19:59:31.418Z,99.90
2019-01-19T20:02:00.609Z,99.90
2019-01-19T20:04:29.896Z,99.90
2019-01-19T20:07:00.026Z,99.90
2019-01-19T20:09:29.628Z,99.90
2019-01-19T20:12:07.361Z,99.90
2019-01-19T20:14:36.878Z,99.90
2019-01-19T20:17:07.137Z,99.90
2019-01-19T20:19:36.605Z,99.90
2019-01-19T20:22:05.921Z,99.90
2019-01-19T20:24:35.555Z,99.90
2019-01-19T20:27:04.966Z,99.90
2019-01-19T20:29:34.166Z,99.90
2019-01-19T20:32:03.906Z,99.90
2019-01-19T20:34:33.430Z,99.90
2019-01-19T20:37:02.675Z,99.90
2019-01-19T20:39:32.585Z,99.90
2019-01-19T20:42:02.093Z,99.90
2019-01-19T20:44:31.270Z,99.90
2019-01-19T20:47:00.813Z,99.90
2019-01-19T20:49:30.059Z,99.90
2019-01-19T20:51:59.231Z,99.90
2019-01-19T20:54:28.392Z,99.90
2019-01-19T20:56:57.660Z,99.90
2019-01-19T20:59:26.903Z,99.90
2019-01-19T21:01:56.492Z,99.90
2019-01-19T21:04:26.000Z,99.90
2019-01-19T21:06:55.527Z,99.90
2019-01-19T21:09:24.700Z,99.90
2019-01-19T21:11:53.891Z,99.90
2019-01-19T21:14:23.584Z,99.90
2019-01-19T21:16:52.806Z,99.90
2019-01-19T21:19:22.001Z,99.90
2019-01-19T21:21:51.247Z,99.90
2019-01-19T21:24:21.018Z,99.90
2019-01-19T21:26:50.839Z,99.90
2019-01-19T21:29:20.169Z,99.90
2019-01-19T21:31:49.464Z,99.90
2019-01-19T21:34:18.786Z,99.90
2019-01-19T21:36:48.330Z,99.90
2019-01-19T21:39:17.508Z,99.90
2019-01-19T21:41:47.003Z,99.90
2019-01-19T21:44:16.532Z,99.90
2019-01-19T21:46:46.009Z,99.90
2019-01-19T21:49:15.221Z,99.90
2019-01-19T21:51:44.442Z,99.90
2019-01-19T21:54:13.715Z,99.90
2019-01-19T21:56:42.881Z,99.90
2019-01-19T21:59:12.127Z,99.90
2019-01-19T22:01:41.385Z,99.90
2019-01-19T22:04:10.936Z,99.90
2019-01-19T22:06:40.731Z,99.90
2019-01-19T22:09:10.578Z,99.90
2019-01-19T22:11:39.740Z,99.90
2019-01-19T22:14:09.249Z,99.90
2019-01-19T22:16:38.476Z,99.90
2019-01-19T22:19:08.318Z,99.90
2019-01-19T22:21:37.561Z,99.90
2019-01-19T22:24:07.066Z,99.90
2019-01-19T22:26:36.821Z,99.90
2019-01-19T22:29:05.986Z,99.90
2019-01-19T22:31:35.172Z,99.90
2019-01-19T22:34:05.029Z,99.90
2019-01-19T22:36:34.590Z,99.90
2019-01-19T22:39:05.381Z,99.90
2019-01-19T22:41:34.641Z,99.90
2019-01-19T22:44:03.983Z,99.90
2019-01-19T22:46:33.569Z,99.90
2019-01-19T22:49:02.807Z,99.90
2019-01-19T22:51:32.429Z,99.90
2019-01-19T22:54:01.674Z,99.90
2019-01-19T22:56:30.924Z,99.90
2019-01-19T22:59:00.400Z,99.90
2019-01-19T23:01:51.670Z,99.90
2019-01-19T23:04:20.835Z,99.90
2019-01-19T23:06:50.010Z,99.90
2019-01-19T23:09:19.249Z,99.90
2019-01-19T23:11:48.441Z,99.90
2019-01-19T23:14:17.663Z,99.90
2019-01-19T23:16:47.274Z,99.90
2019-01-19T23:19:16.505Z,99.90
2019-01-19T23:21:45.715Z,99.90
2019-01-19T23:24:14.877Z,99.90
2019-01-19T23:26:44.788Z,99.90
2019-01-19T23:29:13.952Z,99.90
2019-01-19T23:31:43.536Z,99.90
2019-01-19T23:34:12.692Z,99.90
2019-01-19T23:36:41.867Z,99.90
2019-01-19T23:39:11.295Z,99.90
2019-01-19T23:41:40.465Z,99.90
2019-01-19T23:44:09.681Z,99.90
2019-01-19T23:46:38.857Z,99.90
2019-01-19T23:49:08.025Z,99.90
2019-01-19T23:51:37.228Z,99.90
2019-01-19T23:54:06.400Z,99.90
2019-01-19T23:56:35.591Z,99.90
2019-01-19T23:59:04.759Z,99.90
